Glennie, Michigan
Current Conditions -  °F | °C
As of 1:53 PM on Friday 31 Oct 2014 (Local Time) from KOSC Reporting Station
Light Rain Light Rain  
Wind Chill: 23°   Ceiling: 1300
Heat Index: 35°   Visibility: 4mi
Dew Point: 33°   Wind: 22mph
Humidity: 94%   Direction: 10°N
Pressure: 30.04"   Gusts: 29mph
Location:  44.56°N, 83.73°W
Report Text: KOSC 311753Z AUTO 01019G25KT 4SM -RA OVC013 01/00 A3004 RMK AO2 T00150006
Loading
Personal Weather Stations






























Interactive Weather Map
Tropical Storm Tracking
New forecast layout! Learn more

10-Day Weather Forecast

Advertisements
Track Severe Weather on mobile